Time;durP1;ratioP1;P1;durP2;ratioP2;P2;SDS_P1;SDS_P2;PMS_P1;PMS_P2;Temp;Humidity;BMP_temperature;BMP_pressure;BME280_temperature;BME280_humidity;BME280_pressure;Samples;Min_cycle;Max_cycle;Signal;HPM_P1;HPM_P2
2021/08/02 13:27:01;;;;;;;5.87;3.20;;;;;;;;;;479785;52;935988;-71
2021/08/02 13:27:33;;;;;;;7.03;3.10;;;;;;;;;;478966;52;935667;-58
2021/08/02 13:28:04;;;;;;;4.78;3.28;;;;;;;;;;480138;44;936010;-66
2021/08/02 13:28:36;;;;;;;6.15;3.22;;;;;;;;;;479065;52;935655;-66
2021/08/02 13:29:07;;;;;;;7.30;3.60;;;;;;;;;;480261;44;936199;-66
2021/08/02 13:29:40;;;;;;;5.03;3.10;;;;;;;;;;481069;52;935782;-66
2021/08/02 13:30:11;;;;;;;6.90;3.67;;;;;;;;;;479672;52;935608;-66
2021/08/02 13:30:43;;;;;;;5.30;3.45;;;;;;;;;;479621;52;935955;-67
2021/08/02 13:31:14;;;;;;;5.72;3.40;;;;;;;;;;479474;52;935899;-68
2021/08/02 13:31:46;;;;;;;6.32;3.37;;;;;;;;;;478014;44;935765;-68
2021/08/02 13:32:17;;;;;;;9.48;3.37;;;;;;;;;;477710;52;936016;-71
2021/08/02 13:32:49;;;;;;;6.28;3.65;;;;;;;;;;478847;44;935757;-67
2021/08/02 13:33:20;;;;;;;5.90;3.40;;;;;;;;;;477823;52;935661;-73
2021/08/02 13:33:52;;;;;;;7.00;3.30;;;;;;;;;;477833;44;936141;-69
2021/08/02 13:34:23;;;;;;;9.02;3.22;;;;;;;;;;476461;44;936152;-66
2021/08/02 13:34:55;;;;;;;6.37;3.50;;;;;;;;;;476203;52;936197;-66
2021/08/02 13:35:26;;;;;;;8.60;3.15;;;;;;;;;;477733;52;935936;-65
2021/08/02 13:35:58;;;;;;;9.27;3.10;;;;;;;;;;478023;44;936534;-65
2021/08/02 13:36:29;;;;;;;12.57;3.22;;;;;;;;;;480169;52;935660;-65
2021/08/02 13:37:01;;;;;;;13.95;3.65;;;;;;;;;;480410;52;935787;-64
2021/08/02 13:37:32;;;;;;;7.68;3.20;;;;;;;;;;479886;44;935737;-65
2021/08/02 13:38:04;;;;;;;7.25;3.35;;;;;;;;;;479784;44;936130;-66
2021/08/02 13:38:35;;;;;;;7.93;3.12;;;;;;;;;;478366;44;936212;-66
2021/08/02 13:39:07;;;;;;;4.60;3.10;;;;;;;;;;479585;52;935899;-65
2021/08/02 13:40:09;;;;;;;6.10;3.08;;;;;;;;;;484746;43;936069;-68
2021/08/02 13:40:40;;;;;;;7.35;3.03;;;;;;;;;;483310;44;936225;-71
2021/08/02 13:41:12;;;;;;;5.40;3.50;;;;;;;;;;481841;44;935661;-68
2021/08/02 13:41:43;;;;;;;7.65;3.53;;;;;;;;;;480801;44;936151;-67
2021/08/02 13:42:15;;;;;;;10.30;3.20;;;;;;;;;;481001;44;935792;-63
2021/08/02 13:42:48;;;;;;;7.78;3.20;;;;;;;;;;480919;44;935879;-67
2021/08/02 13:43:20;;;;;;;7.93;3.70;;;;;;;;;;478983;44;935909;-67
2021/08/02 13:43:53;;;;;;;7.00;3.03;;;;;;;;;;478807;52;935755;-66
2021/08/02 13:44:24;;;;;;;9.25;3.62;;;;;;;;;;478755;44;936011;-66
2021/08/02 13:44:56;;;;;;;9.63;3.03;;;;;;;;;;478778;44;935786;-66
2021/08/02 13:45:28;;;;;;;11.27;3.87;;;;;;;;;;479267;52;936367;-66
2021/08/02 13:45:59;;;;;;;10.57;3.85;;;;;;;;;;481810;44;935862;-67
2021/08/02 13:46:31;;;;;;;11.00;3.30;;;;;;;;;;480716;52;936066;-67
2021/08/02 13:47:06;;;;;;;8.07;3.30;;;;;;;;;;481105;44;936141;-67
2021/08/02 13:47:37;;;;;;;9.15;3.37;;;;;;;;;;478681;44;936198;-67
2021/08/02 13:48:09;;;;;;;7.60;3.22;;;;;;;;;;479286;44;935939;-67
2021/08/02 13:48:40;;;;;;;6.45;3.20;;;;;;;;;;480742;44;935816;-67
2021/08/02 13:49:12;;;;;;;3.97;3.05;;;;;;;;;;480901;52;935860;-67
2021/08/02 13:49:44;;;;;;;4.90;2.95;;;;;;;;;;482202;44;935824;-67
2021/08/02 13:50:15;;;;;;;9.65;3.70;;;;;;;;;;481775;44;935776;-68
2021/08/02 13:50:49;;;;;;;5.25;3.10;;;;;;;;;;481322;44;935908;-67
2021/08/02 13:51:20;;;;;;;5.95;3.42;;;;;;;;;;480996;44;935772;-65
2021/08/02 13:51:52;;;;;;;14.55;3.33;;;;;;;;;;480290;52;935896;-68
2021/08/02 13:52:23;;;;;;;6.65;3.50;;;;;;;;;;480842;52;936001;-67
2021/08/02 13:52:55;;;;;;;7.85;3.30;;;;;;;;;;479606;44;936192;-67
2021/08/02 13:53:27;;;;;;;10.77;3.75;;;;;;;;;;480312;52;935698;-65
2021/08/02 13:53:58;;;;;;;7.75;3.17;;;;;;;;;;481342;52;936633;-64
2021/08/02 13:54:30;;;;;;;7.05;3.45;;;;;;;;;;482307;52;935659;-64
2021/08/02 13:55:02;;;;;;;9.82;3.33;;;;;;;;;;481363;52;936148;-64
2021/08/02 13:55:33;;;;;;;8.77;2.97;;;;;;;;;;482084;44;935635;-67
2021/08/02 13:56:05;;;;;;;7.62;3.75;;;;;;;;;;482233;44;935695;-67
2021/08/02 13:56:36;;;;;;;5.47;3.05;;;;;;;;;;478311;52;935689;-68
2021/08/02 13:57:10;;;;;;;6.78;3.10;;;;;;;;;;480494;44;935878;-67
2021/08/02 13:57:42;;;;;;;11.90;3.70;;;;;;;;;;480890;52;936334;-65
2021/08/02 13:58:14;;;;;;;13.07;3.37;;;;;;;;;;480837;52;936076;-66
2021/08/02 13:58:45;;;;;;;13.20;3.67;;;;;;;;;;481481;52;936024;-70
2021/08/02 13:59:17;;;;;;;5.18;3.20;;;;;;;;;;482067;44;936214;-71
2021/08/02 13:59:48;;;;;;;5.62;2.83;;;;;;;;;;483716;51;935723;-69
2021/08/02 14:00:20;;;;;;;6.32;3.08;;;;;;;;;;483412;44;935745;-68
2021/08/02 14:00:51;;;;;;;5.65;3.35;;;;;;;;;;481840;51;935764;-71
2021/08/02 14:01:23;;;;;;;6.68;3.75;;;;;;;;;;481720;52;935891;-71
2021/08/02 14:01:54;;;;;;;4.50;3.00;;;;;;;;;;481095;44;935673;-66
2021/08/02 14:02:26;;;;;;;7.57;2.95;;;;;;;;;;479939;52;935756;-68
2021/08/02 14:02:57;;;;;;;6.07;2.72;;;;;;;;;;481320;52;935840;-67
2021/08/02 14:03:29;;;;;;;5.18;3.15;;;;;;;;;;480719;52;935815;-70
2021/08/02 14:04:00;;;;;;;7.43;3.30;;;;;;;;;;480808;52;936177;-64
2021/08/02 14:04:32;;;;;;;7.35;3.58;;;;;;;;;;481591;52;935796;-67
2021/08/02 14:05:06;;;;;;;5.22;2.87;;;;;;;;;;481488;52;935882;-65
2021/08/02 14:05:39;;;;;;;5.35;3.00;;;;;;;;;;480455;44;936220;-66
2021/08/02 14:06:10;;;;;;;7.07;3.42;;;;;;;;;;480684;52;935764;-70
2021/08/02 14:06:42;;;;;;;7.18;3.17;;;;;;;;;;482447;44;935875;-71
2021/08/02 15:48:21;;;;;;;4.40;2.87;;;;;;;;;;481616;44;936271;-61
2021/08/02 15:48:53;;;;;;;4.15;2.72;;;;;;;;;;482753;52;935870;-63
2021/08/02 15:49:27;;;;;;;6.07;2.78;;;;;;;;;;480973;52;936286;-63
2021/08/02 15:49:59;;;;;;;7.22;2.83;;;;;;;;;;481208;44;935736;-62
2021/08/02 19:30:49;;;;;;;13.68;2.15;;;;;;;;;;483799;51;936299;-60
2021/08/02 19:31:21;;;;;;;6.97;2.12;;;;;;;;;;482907;52;935869;-62
2021/08/02 19:31:52;;;;;;;29.40;2.70;;;;;;;;;;481432;52;935939;-57
2021/08/02 19:32:24;;;;;;;20.80;2.60;;;;;;;;;;481401;52;936150;-59
2021/08/02 19:32:56;;;;;;;12.02;2.35;;;;;;;;;;479672;44;936049;-59
2021/08/02 19:33:27;;;;;;;76.95;3.95;;;;;;;;;;549243;44;935746;-58
2021/08/02 19:33:58;;;;;;;28.70;2.37;;;;;;;;;;479292;52;936338;-60
2021/08/02 19:34:50;;;;;;;7.37;2.22;;;;;;;;;;482397;51;936090;-61
2021/08/02 19:35:22;;;;;;;22.52;2.17;;;;;;;;;;499409;44;935792;-60
2021/08/02 19:35:55;;;;;;;16.58;2.30;;;;;;;;;;481588;52;936263;-62
2021/08/02 19:36:27;;;;;;;19.85;2.70;;;;;;;;;;481376;52;935796;-61
2021/08/02 19:36:58;;;;;;;12.73;2.55;;;;;;;;;;481407;52;936682;-62
2021/08/02 19:37:31;;;;;;;11.02;1.98;;;;;;;;;;481495;52;936333;-61
2021/08/02 19:38:03;;;;;;;14.27;2.33;;;;;;;;;;480322;52;936338;-60
2021/08/02 19:38:34;;;;;;;7.80;1.90;;;;;;;;;;480405;44;935915;-59
2021/08/02 19:39:06;;;;;;;6.78;1.98;;;;;;;;;;480659;52;935860;-60
